<?xml version="1.0" encoding="UTF-8" standalone="no" ?>
<gpx xmlns="http://www.topografix.com/GPX/1/1" xmlns:xsi="http://www.w3.org/2001/XMLSchema-instance" xsi:schemaLocation="http://www.topografix.com/GPX/1/1 http://www.topografix.com/GPX/1/1/gpx.xsd" version="1.1" creator="VisuGPX - https://www.visugpx.com">
  <metadata>
    <name>Abbaye de Saint-Félix de Monceau</name>
  </metadata>
  <wpt lat="43.48757" lon="3.72739">
    <ele>153</ele>
    <name><![CDATA[Parking de l'Abbaye de Saint-Felix de Montceau]]></name>
  </wpt>
  <wpt lat="43.48826" lon="3.73168">
    <ele>199</ele>
    <name><![CDATA[Fourche, continuer à droite]]></name>
  </wpt>
  <wpt lat="43.48403" lon="3.73332">
    <ele>220</ele>
    <name><![CDATA[Croisement, citerne, continuer à gauche]]></name>
  </wpt>
  <wpt lat="43.48173" lon="3.7405">
    <ele>218</ele>
    <name><![CDATA[Croisment, suivre DFCI à droite]]></name>
  </wpt>
  <wpt lat="43.47089" lon="3.72813">
    <ele>143</ele>
    <name><![CDATA[Col, citerne, prendre chemin peu visible à droite]]></name>
  </wpt>
  <wpt lat="43.48679" lon="3.72814">
    <ele>158</ele>
    <name><![CDATA[Capitelle]]></name>
  </wpt>
  <wpt lat="43.48736" lon="3.7272">
    <ele>154</ele>
    <name><![CDATA[Parking de l'Abbaye de Saint-Felix de Montceau]]></name>
  </wpt>
  <trk>
    <name><![CDATA[Abbaye de Saint-Félix de Monceau]]></name>
    <trkseg>
      <trkpt lat="43.48757" lon="3.72739">
        <ele>153</ele>
        <time>2016-03-28T10:02:11+02:00</time>
      </trkpt>
      <trkpt lat="43.48768" lon="3.72763">
        <ele>151</ele>
        <time>2016-03-28T10:02:57+02:00</time>
      </trkpt>
      <trkpt lat="43.48764" lon="3.72789">
        <ele>152</ele>
        <time>2016-03-28T10:04:22+02:00</time>
      </trkpt>
      <trkpt lat="43.48748" lon="3.72817">
        <ele>155</ele>
        <time>2016-03-28T10:04:52+02:00</time>
      </trkpt>
      <trkpt lat="43.48737" lon="3.72851">
        <ele>159</ele>
        <time>2016-03-28T10:05:18+02:00</time>
      </trkpt>
      <trkpt lat="43.48739" lon="3.72872">
        <ele>162</ele>
        <time>2016-03-28T10:05:51+02:00</time>
      </trkpt>
      <trkpt lat="43.48779" lon="3.72877">
        <ele>157</ele>
        <time>2016-03-28T10:06:56+02:00</time>
      </trkpt>
      <trkpt lat="43.48796" lon="3.72897">
        <ele>157</ele>
        <time>2016-03-28T10:07:40+02:00</time>
      </trkpt>
      <trkpt lat="43.48803" lon="3.7292">
        <ele>160</ele>
        <time>2016-03-28T10:08:02+02:00</time>
      </trkpt>
      <trkpt lat="43.48811" lon="3.72954">
        <ele>166</ele>
        <time>2016-03-28T10:08:30+02:00</time>
      </trkpt>
      <trkpt lat="43.48814" lon="3.72988">
        <ele>172</ele>
        <time>2016-03-28T10:08:56+02:00</time>
      </trkpt>
      <trkpt lat="43.48822" lon="3.73039">
        <ele>181</ele>
        <time>2016-03-28T10:09:20+02:00</time>
      </trkpt>
      <trkpt lat="43.48851" lon="3.73029">
        <ele>177</ele>
        <time>2016-03-28T10:10:34+02:00</time>
      </trkpt>
      <trkpt lat="43.48875" lon="3.73019">
        <ele>174</ele>
        <time>2016-03-28T10:11:04+02:00</time>
      </trkpt>
      <trkpt lat="43.48899" lon="3.73019">
        <ele>174</ele>
        <time>2016-03-28T10:11:28+02:00</time>
      </trkpt>
      <trkpt lat="43.48921" lon="3.73033">
        <ele>176</ele>
        <time>2016-03-28T10:11:50+02:00</time>
      </trkpt>
      <trkpt lat="43.48937" lon="3.73054">
        <ele>178</ele>
        <time>2016-03-28T10:12:14+02:00</time>
      </trkpt>
      <trkpt lat="43.48958" lon="3.73072">
        <ele>178</ele>
        <time>2016-03-28T10:12:38+02:00</time>
      </trkpt>
      <trkpt lat="43.48976" lon="3.73093">
        <ele>177</ele>
        <time>2016-03-28T10:13:00+02:00</time>
      </trkpt>
      <trkpt lat="43.48987" lon="3.73122">
        <ele>178</ele>
        <time>2016-03-28T10:16:06+02:00</time>
      </trkpt>
      <trkpt lat="43.48986" lon="3.73153">
        <ele>181</ele>
        <time>2016-03-28T10:16:28+02:00</time>
      </trkpt>
      <trkpt lat="43.48987" lon="3.73184">
        <ele>182</ele>
        <time>2016-03-28T10:16:50+02:00</time>
      </trkpt>
      <trkpt lat="43.4898" lon="3.73214">
        <ele>183</ele>
        <time>2016-03-28T10:17:10+02:00</time>
      </trkpt>
      <trkpt lat="43.48958" lon="3.73224">
        <ele>185</ele>
        <time>2016-03-28T10:17:31+02:00</time>
      </trkpt>
      <trkpt lat="43.48936" lon="3.73214">
        <ele>188</ele>
        <time>2016-03-28T10:17:54+02:00</time>
      </trkpt>
      <trkpt lat="43.48915" lon="3.73201">
        <ele>192</ele>
        <time>2016-03-28T10:18:24+02:00</time>
      </trkpt>
      <trkpt lat="43.48892" lon="3.73189">
        <ele>194</ele>
        <time>2016-03-28T10:18:47+02:00</time>
      </trkpt>
      <trkpt lat="43.4887" lon="3.73182">
        <ele>195</ele>
        <time>2016-03-28T10:19:29+02:00</time>
      </trkpt>
      <trkpt lat="43.48848" lon="3.73174">
        <ele>197</ele>
        <time>2016-03-28T10:20:06+02:00</time>
      </trkpt>
      <trkpt lat="43.48826" lon="3.73168">
        <ele>199</ele>
        <time>2016-03-28T10:21:54+02:00</time>
      </trkpt>
      <trkpt lat="43.48801" lon="3.7316">
        <ele>200</ele>
        <time>2016-03-28T10:22:18+02:00</time>
      </trkpt>
      <trkpt lat="43.48779" lon="3.7315">
        <ele>202</ele>
        <time>2016-03-28T10:22:40+02:00</time>
      </trkpt>
      <trkpt lat="43.4876" lon="3.73129">
        <ele>202</ele>
        <time>2016-03-28T10:23:02+02:00</time>
      </trkpt>
      <trkpt lat="43.48741" lon="3.73107">
        <ele>202</ele>
        <time>2016-03-28T10:23:26+02:00</time>
      </trkpt>
      <trkpt lat="43.48723" lon="3.73089">
        <ele>202</ele>
        <time>2016-03-28T10:23:47+02:00</time>
      </trkpt>
      <trkpt lat="43.48701" lon="3.73084">
        <ele>204</ele>
        <time>2016-03-28T10:24:10+02:00</time>
      </trkpt>
      <trkpt lat="43.48677" lon="3.73092">
        <ele>206</ele>
        <time>2016-03-28T10:27:04+02:00</time>
      </trkpt>
      <trkpt lat="43.48655" lon="3.731">
        <ele>208</ele>
        <time>2016-03-28T10:27:25+02:00</time>
      </trkpt>
      <trkpt lat="43.48631" lon="3.73108">
        <ele>208</ele>
        <time>2016-03-28T10:28:54+02:00</time>
      </trkpt>
      <trkpt lat="43.48609" lon="3.73119">
        <ele>209</ele>
        <time>2016-03-28T10:29:18+02:00</time>
      </trkpt>
      <trkpt lat="43.48587" lon="3.73127">
        <ele>210</ele>
        <time>2016-03-28T10:29:38+02:00</time>
      </trkpt>
      <trkpt lat="43.48567" lon="3.7314">
        <ele>210</ele>
        <time>2016-03-28T10:29:58+02:00</time>
      </trkpt>
      <trkpt lat="43.48548" lon="3.73157">
        <ele>211</ele>
        <time>2016-03-28T10:30:18+02:00</time>
      </trkpt>
      <trkpt lat="43.48543" lon="3.73188">
        <ele>212</ele>
        <time>2016-03-28T10:30:49+02:00</time>
      </trkpt>
      <trkpt lat="43.4855" lon="3.73219">
        <ele>214</ele>
        <time>2016-03-28T10:31:13+02:00</time>
      </trkpt>
      <trkpt lat="43.48549" lon="3.73251">
        <ele>214</ele>
        <time>2016-03-28T10:31:34+02:00</time>
      </trkpt>
      <trkpt lat="43.48534" lon="3.73276">
        <ele>215</ele>
        <time>2016-03-28T10:31:56+02:00</time>
      </trkpt>
      <trkpt lat="43.48516" lon="3.73299">
        <ele>216</ele>
        <time>2016-03-28T10:32:22+02:00</time>
      </trkpt>
      <trkpt lat="43.48494" lon="3.73303">
        <ele>216</ele>
        <time>2016-03-28T10:33:24+02:00</time>
      </trkpt>
      <trkpt lat="43.4847" lon="3.73308">
        <ele>217</ele>
        <time>2016-03-28T10:33:44+02:00</time>
      </trkpt>
      <trkpt lat="43.48446" lon="3.73313">
        <ele>218</ele>
        <time>2016-03-28T10:34:04+02:00</time>
      </trkpt>
      <trkpt lat="43.48423" lon="3.73317">
        <ele>218</ele>
        <time>2016-03-28T10:34:27+02:00</time>
      </trkpt>
      <trkpt lat="43.48403" lon="3.73332">
        <ele>220</ele>
        <time>2016-03-28T10:34:48+02:00</time>
      </trkpt>
      <trkpt lat="43.48388" lon="3.73357">
        <ele>220</ele>
        <time>2016-03-28T10:36:23+02:00</time>
      </trkpt>
      <trkpt lat="43.48368" lon="3.73373">
        <ele>220</ele>
        <time>2016-03-28T10:36:48+02:00</time>
      </trkpt>
      <trkpt lat="43.48346" lon="3.73382">
        <ele>219</ele>
        <time>2016-03-28T10:37:09+02:00</time>
      </trkpt>
      <trkpt lat="43.48324" lon="3.73386">
        <ele>219</ele>
        <time>2016-03-28T10:37:29+02:00</time>
      </trkpt>
      <trkpt lat="43.483" lon="3.7339">
        <ele>220</ele>
        <time>2016-03-28T10:37:48+02:00</time>
      </trkpt>
      <trkpt lat="43.48277" lon="3.73395">
        <ele>220</ele>
        <time>2016-03-28T10:38:08+02:00</time>
      </trkpt>
      <trkpt lat="43.48256" lon="3.73408">
        <ele>220</ele>
        <time>2016-03-28T10:38:29+02:00</time>
      </trkpt>
      <trkpt lat="43.48241" lon="3.73431">
        <ele>219</ele>
        <time>2016-03-28T10:38:52+02:00</time>
      </trkpt>
      <trkpt lat="43.48233" lon="3.7346">
        <ele>218</ele>
        <time>2016-03-28T10:39:12+02:00</time>
      </trkpt>
      <trkpt lat="43.48234" lon="3.73492">
        <ele>217</ele>
        <time>2016-03-28T10:39:53+02:00</time>
      </trkpt>
      <trkpt lat="43.48239" lon="3.73525">
        <ele>216</ele>
        <time>2016-03-28T10:40:15+02:00</time>
      </trkpt>
      <trkpt lat="43.48247" lon="3.73554">
        <ele>217</ele>
        <time>2016-03-28T10:40:36+02:00</time>
      </trkpt>
      <trkpt lat="43.48253" lon="3.7358">
        <ele>216</ele>
        <time>2016-03-28T10:40:56+02:00</time>
      </trkpt>
      <trkpt lat="43.4826" lon="3.7361">
        <ele>216</ele>
        <time>2016-03-28T10:41:15+02:00</time>
      </trkpt>
      <trkpt lat="43.4827" lon="3.73642">
        <ele>216</ele>
        <time>2016-03-28T10:41:35+02:00</time>
      </trkpt>
      <trkpt lat="43.48277" lon="3.73672">
        <ele>215</ele>
        <time>2016-03-28T10:41:54+02:00</time>
      </trkpt>
      <trkpt lat="43.48271" lon="3.73702">
        <ele>216</ele>
        <time>2016-03-28T10:42:13+02:00</time>
      </trkpt>
      <trkpt lat="43.4826" lon="3.73729">
        <ele>217</ele>
        <time>2016-03-28T10:42:31+02:00</time>
      </trkpt>
      <trkpt lat="43.48245" lon="3.73758">
        <ele>218</ele>
        <time>2016-03-28T10:43:04+02:00</time>
      </trkpt>
      <trkpt lat="43.48235" lon="3.73784">
        <ele>218</ele>
        <time>2016-03-28T10:43:26+02:00</time>
      </trkpt>
      <trkpt lat="43.48223" lon="3.73811">
        <ele>218</ele>
        <time>2016-03-28T10:43:50+02:00</time>
      </trkpt>
      <trkpt lat="43.48212" lon="3.73838">
        <ele>218</ele>
        <time>2016-03-28T10:44:16+02:00</time>
      </trkpt>
      <trkpt lat="43.48202" lon="3.73867">
        <ele>218</ele>
        <time>2016-03-28T10:44:36+02:00</time>
      </trkpt>
      <trkpt lat="43.48192" lon="3.73895">
        <ele>219</ele>
        <time>2016-03-28T10:44:55+02:00</time>
      </trkpt>
      <trkpt lat="43.48183" lon="3.73925">
        <ele>219</ele>
        <time>2016-03-28T10:45:14+02:00</time>
      </trkpt>
      <trkpt lat="43.48179" lon="3.73956">
        <ele>219</ele>
        <time>2016-03-28T10:45:32+02:00</time>
      </trkpt>
      <trkpt lat="43.48177" lon="3.73987">
        <ele>219</ele>
        <time>2016-03-28T10:45:50+02:00</time>
      </trkpt>
      <trkpt lat="43.48176" lon="3.74019">
        <ele>218</ele>
        <time>2016-03-28T10:46:11+02:00</time>
      </trkpt>
      <trkpt lat="43.48173" lon="3.7405">
        <ele>218</ele>
        <time>2016-03-28T10:47:35+02:00</time>
      </trkpt>
      <trkpt lat="43.48152" lon="3.74063">
        <ele>217</ele>
        <time>2016-03-28T10:47:54+02:00</time>
      </trkpt>
      <trkpt lat="43.48131" lon="3.74077">
        <ele>217</ele>
        <time>2016-03-28T10:48:13+02:00</time>
      </trkpt>
      <trkpt lat="43.4811" lon="3.74086">
        <ele>216</ele>
        <time>2016-03-28T10:48:31+02:00</time>
      </trkpt>
      <trkpt lat="43.48087" lon="3.74083">
        <ele>216</ele>
        <time>2016-03-28T10:48:49+02:00</time>
      </trkpt>
      <trkpt lat="43.48066" lon="3.7407">
        <ele>216</ele>
        <time>2016-03-28T10:49:35+02:00</time>
      </trkpt>
      <trkpt lat="43.48043" lon="3.74071">
        <ele>215</ele>
        <time>2016-03-28T10:50:03+02:00</time>
      </trkpt>
      <trkpt lat="43.48019" lon="3.74071">
        <ele>215</ele>
        <time>2016-03-28T10:50:24+02:00</time>
      </trkpt>
      <trkpt lat="43.47997" lon="3.74071">
        <ele>215</ele>
        <time>2016-03-28T10:50:46+02:00</time>
      </trkpt>
      <trkpt lat="43.47974" lon="3.74071">
        <ele>214</ele>
        <time>2016-03-28T10:53:14+02:00</time>
      </trkpt>
      <trkpt lat="43.47951" lon="3.74065">
        <ele>213</ele>
        <time>2016-03-28T10:53:40+02:00</time>
      </trkpt>
      <trkpt lat="43.47929" lon="3.74059">
        <ele>213</ele>
        <time>2016-03-28T10:55:46+02:00</time>
      </trkpt>
      <trkpt lat="43.47906" lon="3.74052">
        <ele>212</ele>
        <time>2016-03-28T10:56:08+02:00</time>
      </trkpt>
      <trkpt lat="43.47885" lon="3.74037">
        <ele>212</ele>
        <time>2016-03-28T10:56:28+02:00</time>
      </trkpt>
      <trkpt lat="43.47868" lon="3.74016">
        <ele>212</ele>
        <time>2016-03-28T10:56:46+02:00</time>
      </trkpt>
      <trkpt lat="43.47857" lon="3.74002">
        <ele>212</ele>
        <time>2016-03-28T11:34:04+02:00</time>
      </trkpt>
      <trkpt lat="43.47848" lon="3.73981">
        <ele>212</ele>
        <time>2016-03-28T11:35:56+02:00</time>
      </trkpt>
      <trkpt lat="43.47843" lon="3.73951">
        <ele>213</ele>
        <time>2016-03-28T11:36:19+02:00</time>
      </trkpt>
      <trkpt lat="43.47839" lon="3.73922">
        <ele>213</ele>
        <time>2016-03-28T11:36:52+02:00</time>
      </trkpt>
      <trkpt lat="43.47832" lon="3.7389">
        <ele>213</ele>
        <time>2016-03-28T11:37:16+02:00</time>
      </trkpt>
      <trkpt lat="43.47822" lon="3.73861">
        <ele>213</ele>
        <time>2016-03-28T11:37:40+02:00</time>
      </trkpt>
      <trkpt lat="43.4781" lon="3.73833">
        <ele>214</ele>
        <time>2016-03-28T11:38:02+02:00</time>
      </trkpt>
      <trkpt lat="43.47798" lon="3.73804">
        <ele>214</ele>
        <time>2016-03-28T11:38:25+02:00</time>
      </trkpt>
      <trkpt lat="43.47781" lon="3.73782">
        <ele>213</ele>
        <time>2016-03-28T11:38:50+02:00</time>
      </trkpt>
      <trkpt lat="43.47763" lon="3.73762">
        <ele>213</ele>
        <time>2016-03-28T11:39:16+02:00</time>
      </trkpt>
      <trkpt lat="43.47744" lon="3.73744">
        <ele>213</ele>
        <time>2016-03-28T11:39:37+02:00</time>
      </trkpt>
      <trkpt lat="43.47724" lon="3.73729">
        <ele>213</ele>
        <time>2016-03-28T11:40:02+02:00</time>
      </trkpt>
      <trkpt lat="43.47703" lon="3.73717">
        <ele>213</ele>
        <time>2016-03-28T11:40:25+02:00</time>
      </trkpt>
      <trkpt lat="43.4768" lon="3.73708">
        <ele>212</ele>
        <time>2016-03-28T11:40:50+02:00</time>
      </trkpt>
      <trkpt lat="43.47658" lon="3.737">
        <ele>212</ele>
        <time>2016-03-28T11:41:24+02:00</time>
      </trkpt>
      <trkpt lat="43.47636" lon="3.73695">
        <ele>212</ele>
        <time>2016-03-28T11:42:14+02:00</time>
      </trkpt>
      <trkpt lat="43.47614" lon="3.73691">
        <ele>212</ele>
        <time>2016-03-28T11:43:07+02:00</time>
      </trkpt>
      <trkpt lat="43.4759" lon="3.73685">
        <ele>213</ele>
        <time>2016-03-28T11:43:46+02:00</time>
      </trkpt>
      <trkpt lat="43.47567" lon="3.73685">
        <ele>210</ele>
        <time>2016-03-28T11:44:20+02:00</time>
      </trkpt>
      <trkpt lat="43.47544" lon="3.73679">
        <ele>208</ele>
        <time>2016-03-28T11:46:02+02:00</time>
      </trkpt>
      <trkpt lat="43.47518" lon="3.73677">
        <ele>205</ele>
        <time>2016-03-28T11:46:30+02:00</time>
      </trkpt>
      <trkpt lat="43.47497" lon="3.7367">
        <ele>203</ele>
        <time>2016-03-28T11:47:01+02:00</time>
      </trkpt>
      <trkpt lat="43.4748" lon="3.73653">
        <ele>200</ele>
        <time>2016-03-28T11:48:02+02:00</time>
      </trkpt>
      <trkpt lat="43.47465" lon="3.73626">
        <ele>200</ele>
        <time>2016-03-28T11:48:28+02:00</time>
      </trkpt>
      <trkpt lat="43.47449" lon="3.73604">
        <ele>200</ele>
        <time>2016-03-28T11:48:50+02:00</time>
      </trkpt>
      <trkpt lat="43.47432" lon="3.73581">
        <ele>201</ele>
        <time>2016-03-28T11:49:18+02:00</time>
      </trkpt>
      <trkpt lat="43.47414" lon="3.73562">
        <ele>201</ele>
        <time>2016-03-28T11:50:02+02:00</time>
      </trkpt>
      <trkpt lat="43.47394" lon="3.73546">
        <ele>199</ele>
        <time>2016-03-28T11:50:40+02:00</time>
      </trkpt>
      <trkpt lat="43.47371" lon="3.73535">
        <ele>195</ele>
        <time>2016-03-28T11:51:12+02:00</time>
      </trkpt>
      <trkpt lat="43.47348" lon="3.73526">
        <ele>193</ele>
        <time>2016-03-28T11:51:34+02:00</time>
      </trkpt>
      <trkpt lat="43.47326" lon="3.73512">
        <ele>191</ele>
        <time>2016-03-28T11:51:54+02:00</time>
      </trkpt>
      <trkpt lat="43.47306" lon="3.73494">
        <ele>191</ele>
        <time>2016-03-28T11:52:14+02:00</time>
      </trkpt>
      <trkpt lat="43.4729" lon="3.73468">
        <ele>194</ele>
        <time>2016-03-28T11:52:38+02:00</time>
      </trkpt>
      <trkpt lat="43.47269" lon="3.73453">
        <ele>194</ele>
        <time>2016-03-28T11:53:00+02:00</time>
      </trkpt>
      <trkpt lat="43.47246" lon="3.73444">
        <ele>193</ele>
        <time>2016-03-28T11:53:30+02:00</time>
      </trkpt>
      <trkpt lat="43.47223" lon="3.7344">
        <ele>192</ele>
        <time>2016-03-28T11:53:50+02:00</time>
      </trkpt>
      <trkpt lat="43.47199" lon="3.73442">
        <ele>189</ele>
        <time>2016-03-28T11:54:12+02:00</time>
      </trkpt>
      <trkpt lat="43.47176" lon="3.73446">
        <ele>184</ele>
        <time>2016-03-28T11:54:56+02:00</time>
      </trkpt>
      <trkpt lat="43.47153" lon="3.73448">
        <ele>182</ele>
        <time>2016-03-28T11:55:24+02:00</time>
      </trkpt>
      <trkpt lat="43.47129" lon="3.73452">
        <ele>179</ele>
        <time>2016-03-28T11:55:46+02:00</time>
      </trkpt>
      <trkpt lat="43.47105" lon="3.73449">
        <ele>177</ele>
        <time>2016-03-28T11:56:18+02:00</time>
      </trkpt>
      <trkpt lat="43.47078" lon="3.73444">
        <ele>176</ele>
        <time>2016-03-28T11:57:22+02:00</time>
      </trkpt>
      <trkpt lat="43.47055" lon="3.73446">
        <ele>171</ele>
        <time>2016-03-28T11:57:46+02:00</time>
      </trkpt>
      <trkpt lat="43.47031" lon="3.7344">
        <ele>169</ele>
        <time>2016-03-28T11:58:10+02:00</time>
      </trkpt>
      <trkpt lat="43.47011" lon="3.73425">
        <ele>170</ele>
        <time>2016-03-28T11:58:40+02:00</time>
      </trkpt>
      <trkpt lat="43.46992" lon="3.73407">
        <ele>169</ele>
        <time>2016-03-28T11:58:58+02:00</time>
      </trkpt>
      <trkpt lat="43.46979" lon="3.73382">
        <ele>168</ele>
        <time>2016-03-28T11:59:18+02:00</time>
      </trkpt>
      <trkpt lat="43.46961" lon="3.73359">
        <ele>166</ele>
        <time>2016-03-28T11:59:39+02:00</time>
      </trkpt>
      <trkpt lat="43.4694" lon="3.7334">
        <ele>161</ele>
        <time>2016-03-28T12:00:01+02:00</time>
      </trkpt>
      <trkpt lat="43.46923" lon="3.7332">
        <ele>157</ele>
        <time>2016-03-28T12:00:22+02:00</time>
      </trkpt>
      <trkpt lat="43.46912" lon="3.73303">
        <ele>154</ele>
        <time>2016-03-28T12:00:52+02:00</time>
      </trkpt>
      <trkpt lat="43.46912" lon="3.73256">
        <ele>158</ele>
        <time>2016-03-28T12:01:30+02:00</time>
      </trkpt>
      <trkpt lat="43.46916" lon="3.73225">
        <ele>160</ele>
        <time>2016-03-28T12:02:24+02:00</time>
      </trkpt>
      <trkpt lat="43.46916" lon="3.73193">
        <ele>161</ele>
        <time>2016-03-28T12:03:00+02:00</time>
      </trkpt>
      <trkpt lat="43.46905" lon="3.73162">
        <ele>158</ele>
        <time>2016-03-28T12:03:26+02:00</time>
      </trkpt>
      <trkpt lat="43.46888" lon="3.73141">
        <ele>153</ele>
        <time>2016-03-28T12:03:49+02:00</time>
      </trkpt>
      <trkpt lat="43.46874" lon="3.73115">
        <ele>149</ele>
        <time>2016-03-28T12:04:08+02:00</time>
      </trkpt>
      <trkpt lat="43.46869" lon="3.73082">
        <ele>148</ele>
        <time>2016-03-28T12:04:30+02:00</time>
      </trkpt>
      <trkpt lat="43.46866" lon="3.73052">
        <ele>144</ele>
        <time>2016-03-28T12:05:30+02:00</time>
      </trkpt>
      <trkpt lat="43.46872" lon="3.7302">
        <ele>143</ele>
        <time>2016-03-28T12:05:56+02:00</time>
      </trkpt>
      <trkpt lat="43.46879" lon="3.72989">
        <ele>142</ele>
        <time>2016-03-28T12:06:18+02:00</time>
      </trkpt>
      <trkpt lat="43.46892" lon="3.7296">
        <ele>141</ele>
        <time>2016-03-28T12:06:40+02:00</time>
      </trkpt>
      <trkpt lat="43.46911" lon="3.7294">
        <ele>141</ele>
        <time>2016-03-28T12:07:22+02:00</time>
      </trkpt>
      <trkpt lat="43.46935" lon="3.72936">
        <ele>143</ele>
        <time>2016-03-28T12:07:48+02:00</time>
      </trkpt>
      <trkpt lat="43.4696" lon="3.72933">
        <ele>144</ele>
        <time>2016-03-28T12:08:34+02:00</time>
      </trkpt>
      <trkpt lat="43.46983" lon="3.72927">
        <ele>144</ele>
        <time>2016-03-28T12:09:11+02:00</time>
      </trkpt>
      <trkpt lat="43.47007" lon="3.72922">
        <ele>145</ele>
        <time>2016-03-28T12:09:31+02:00</time>
      </trkpt>
      <trkpt lat="43.47031" lon="3.72914">
        <ele>147</ele>
        <time>2016-03-28T12:09:52+02:00</time>
      </trkpt>
      <trkpt lat="43.47048" lon="3.72893">
        <ele>146</ele>
        <time>2016-03-28T12:10:10+02:00</time>
      </trkpt>
      <trkpt lat="43.47062" lon="3.72864">
        <ele>145</ele>
        <time>2016-03-28T12:10:30+02:00</time>
      </trkpt>
      <trkpt lat="43.47077" lon="3.72838">
        <ele>144</ele>
        <time>2016-03-28T12:10:50+02:00</time>
      </trkpt>
      <trkpt lat="43.47087" lon="3.72811">
        <ele>144</ele>
        <time>2016-03-28T12:11:22+02:00</time>
      </trkpt>
      <trkpt lat="43.47085" lon="3.72814">
        <ele>144</ele>
        <time>2016-03-28T12:11:44+02:00</time>
      </trkpt>
      <trkpt lat="43.47082" lon="3.72816">
        <ele>144</ele>
        <time>2016-03-28T12:12:02+02:00</time>
      </trkpt>
      <trkpt lat="43.47084" lon="3.72814">
        <ele>144</ele>
        <time>2016-03-28T12:12:22+02:00</time>
      </trkpt>
      <trkpt lat="43.47085" lon="3.72812">
        <ele>144</ele>
        <time>2016-03-28T12:12:42+02:00</time>
      </trkpt>
      <trkpt lat="43.47084" lon="3.72817">
        <ele>144</ele>
        <time>2016-03-28T12:13:02+02:00</time>
      </trkpt>
      <trkpt lat="43.47084" lon="3.72815">
        <ele>144</ele>
        <time>2016-03-28T12:13:22+02:00</time>
      </trkpt>
      <trkpt lat="43.47085" lon="3.72816">
        <ele>144</ele>
        <time>2016-03-28T12:13:41+02:00</time>
      </trkpt>
      <trkpt lat="43.47083" lon="3.72817">
        <ele>144</ele>
        <time>2016-03-28T12:14:02+02:00</time>
      </trkpt>
      <trkpt lat="43.47084" lon="3.72815">
        <ele>144</ele>
        <time>2016-03-28T12:14:30+02:00</time>
      </trkpt>
      <trkpt lat="43.47082" lon="3.72815">
        <ele>144</ele>
        <time>2016-03-28T12:14:52+02:00</time>
      </trkpt>
      <trkpt lat="43.47083" lon="3.72815">
        <ele>144</ele>
        <time>2016-03-28T12:15:12+02:00</time>
      </trkpt>
      <trkpt lat="43.47083" lon="3.72815">
        <ele>144</ele>
        <time>2016-03-28T12:15:32+02:00</time>
      </trkpt>
      <trkpt lat="43.47084" lon="3.72815">
        <ele>144</ele>
        <time>2016-03-28T12:15:54+02:00</time>
      </trkpt>
      <trkpt lat="43.47085" lon="3.72813">
        <ele>144</ele>
        <time>2016-03-28T12:19:04+02:00</time>
      </trkpt>
      <trkpt lat="43.47084" lon="3.72817">
        <ele>144</ele>
        <time>2021-12-08T23:47:46+01:00</time>
      </trkpt>
      <trkpt lat="43.47084" lon="3.72815">
        <ele>144</ele>
        <time>2016-03-28T12:20:20+02:00</time>
      </trkpt>
      <trkpt lat="43.47084" lon="3.72818">
        <ele>144</ele>
        <time>2016-03-28T12:27:45+02:00</time>
      </trkpt>
      <trkpt lat="43.47084" lon="3.72818">
        <ele>144</ele>
        <time>2016-03-28T12:28:00+02:00</time>
      </trkpt>
      <trkpt lat="43.47083" lon="3.72813">
        <ele>144</ele>
        <time>2016-03-28T12:28:25+02:00</time>
      </trkpt>
      <trkpt lat="43.47085" lon="3.72814">
        <ele>144</ele>
        <time>2016-03-28T12:29:07+02:00</time>
      </trkpt>
      <trkpt lat="43.47083" lon="3.72812">
        <ele>144</ele>
        <time>2016-03-28T12:29:27+02:00</time>
      </trkpt>
      <trkpt lat="43.47084" lon="3.72814">
        <ele>144</ele>
        <time>2016-03-28T12:29:45+02:00</time>
      </trkpt>
      <trkpt lat="43.47083" lon="3.72815">
        <ele>144</ele>
        <time>2016-03-28T12:30:07+02:00</time>
      </trkpt>
      <trkpt lat="43.47085" lon="3.72814">
        <ele>144</ele>
        <time>2016-03-28T12:30:44+02:00</time>
      </trkpt>
      <trkpt lat="43.47083" lon="3.72819">
        <ele>144</ele>
        <time>2016-03-28T12:31:06+02:00</time>
      </trkpt>
      <trkpt lat="43.47084" lon="3.72815">
        <ele>144</ele>
        <time>2016-03-28T12:31:29+02:00</time>
      </trkpt>
      <trkpt lat="43.47084" lon="3.72813">
        <ele>144</ele>
        <time>2016-03-28T12:31:50+02:00</time>
      </trkpt>
      <trkpt lat="43.47085" lon="3.72812">
        <ele>144</ele>
        <time>2016-03-28T12:32:11+02:00</time>
      </trkpt>
      <trkpt lat="43.47084" lon="3.72822">
        <ele>144</ele>
        <time>2016-03-28T12:32:32+02:00</time>
      </trkpt>
      <trkpt lat="43.47083" lon="3.72822">
        <ele>144</ele>
        <time>2016-03-28T12:32:59+02:00</time>
      </trkpt>
      <trkpt lat="43.47089" lon="3.72813">
        <ele>143</ele>
        <time>2016-03-28T12:33:24+02:00</time>
      </trkpt>
      <trkpt lat="43.47103" lon="3.72838">
        <ele>141</ele>
        <time>2016-03-28T12:34:23+02:00</time>
      </trkpt>
      <trkpt lat="43.47121" lon="3.72855">
        <ele>141</ele>
        <time>2016-03-28T12:34:42+02:00</time>
      </trkpt>
      <trkpt lat="43.47102" lon="3.72834">
        <ele>141</ele>
        <time>2016-03-28T12:37:06+02:00</time>
      </trkpt>
      <trkpt lat="43.47082" lon="3.72819">
        <ele>144</ele>
        <time>2016-03-28T12:37:23+02:00</time>
      </trkpt>
      <trkpt lat="43.47108" lon="3.72804">
        <ele>140</ele>
        <time>2016-03-28T12:43:46+02:00</time>
      </trkpt>
      <trkpt lat="43.47128" lon="3.72786">
        <ele>135</ele>
        <time>2016-03-28T12:44:22+02:00</time>
      </trkpt>
      <trkpt lat="43.47148" lon="3.72769">
        <ele>130</ele>
        <time>2016-03-28T12:44:56+02:00</time>
      </trkpt>
      <trkpt lat="43.47164" lon="3.72746">
        <ele>125</ele>
        <time>2016-03-28T12:45:54+02:00</time>
      </trkpt>
      <trkpt lat="43.47175" lon="3.72719">
        <ele>123</ele>
        <time>2016-03-28T12:46:27+02:00</time>
      </trkpt>
      <trkpt lat="43.47183" lon="3.7269">
        <ele>122</ele>
        <time>2016-03-28T12:47:12+02:00</time>
      </trkpt>
      <trkpt lat="43.47204" lon="3.72678">
        <ele>122</ele>
        <time>2016-03-28T12:48:05+02:00</time>
      </trkpt>
      <trkpt lat="43.47228" lon="3.72674">
        <ele>122</ele>
        <time>2016-03-28T12:50:26+02:00</time>
      </trkpt>
      <trkpt lat="43.4725" lon="3.72673">
        <ele>123</ele>
        <time>2016-03-28T12:51:02+02:00</time>
      </trkpt>
      <trkpt lat="43.47272" lon="3.72684">
        <ele>129</ele>
        <time>2016-03-28T12:51:38+02:00</time>
      </trkpt>
      <trkpt lat="43.47295" lon="3.72686">
        <ele>137</ele>
        <time>2016-03-28T12:53:41+02:00</time>
      </trkpt>
      <trkpt lat="43.47317" lon="3.72687">
        <ele>144</ele>
        <time>2016-03-28T12:54:36+02:00</time>
      </trkpt>
      <trkpt lat="43.4734" lon="3.7269">
        <ele>152</ele>
        <time>2016-03-28T12:56:12+02:00</time>
      </trkpt>
      <trkpt lat="43.4736" lon="3.72708">
        <ele>157</ele>
        <time>2016-03-28T12:56:54+02:00</time>
      </trkpt>
      <trkpt lat="43.47372" lon="3.72735">
        <ele>158</ele>
        <time>2016-03-28T12:57:26+02:00</time>
      </trkpt>
      <trkpt lat="43.47385" lon="3.72761">
        <ele>160</ele>
        <time>2016-03-28T12:58:25+02:00</time>
      </trkpt>
      <trkpt lat="43.47403" lon="3.72779">
        <ele>164</ele>
        <time>2016-03-28T12:58:50+02:00</time>
      </trkpt>
      <trkpt lat="43.47425" lon="3.72789">
        <ele>170</ele>
        <time>2016-03-28T12:59:20+02:00</time>
      </trkpt>
      <trkpt lat="43.47447" lon="3.72795">
        <ele>176</ele>
        <time>2016-03-28T13:00:01+02:00</time>
      </trkpt>
      <trkpt lat="43.47469" lon="3.72805">
        <ele>181</ele>
        <time>2016-03-28T13:02:00+02:00</time>
      </trkpt>
      <trkpt lat="43.47487" lon="3.72826">
        <ele>184</ele>
        <time>2016-03-28T13:03:06+02:00</time>
      </trkpt>
      <trkpt lat="43.47493" lon="3.72843">
        <ele>184</ele>
        <time>2021-12-08T23:51:16+01:00</time>
      </trkpt>
      <trkpt lat="43.47509" lon="3.72835">
        <ele>189</ele>
        <time>2016-03-28T13:06:36+02:00</time>
      </trkpt>
      <trkpt lat="43.47532" lon="3.72831">
        <ele>193</ele>
        <time>2016-03-28T13:07:12+02:00</time>
      </trkpt>
      <trkpt lat="43.47555" lon="3.72857">
        <ele>196</ele>
        <time>2016-03-28T13:18:37+02:00</time>
      </trkpt>
      <trkpt lat="43.47571" lon="3.7288">
        <ele>197</ele>
        <time>2016-03-28T13:18:57+02:00</time>
      </trkpt>
      <trkpt lat="43.47588" lon="3.72902">
        <ele>198</ele>
        <time>2016-03-28T13:19:16+02:00</time>
      </trkpt>
      <trkpt lat="43.47604" lon="3.72926">
        <ele>199</ele>
        <time>2016-03-28T13:19:34+02:00</time>
      </trkpt>
      <trkpt lat="43.47619" lon="3.7295">
        <ele>200</ele>
        <time>2016-03-28T13:20:00+02:00</time>
      </trkpt>
      <trkpt lat="43.47636" lon="3.72971">
        <ele>203</ele>
        <time>2016-03-28T13:20:24+02:00</time>
      </trkpt>
      <trkpt lat="43.47649" lon="3.72998">
        <ele>204</ele>
        <time>2016-03-28T13:20:50+02:00</time>
      </trkpt>
      <trkpt lat="43.47659" lon="3.73025">
        <ele>204</ele>
        <time>2016-03-28T13:21:12+02:00</time>
      </trkpt>
      <trkpt lat="43.47674" lon="3.7305">
        <ele>205</ele>
        <time>2016-03-28T13:21:35+02:00</time>
      </trkpt>
      <trkpt lat="43.47691" lon="3.73071">
        <ele>206</ele>
        <time>2016-03-28T13:21:56+02:00</time>
      </trkpt>
      <trkpt lat="43.47706" lon="3.73097">
        <ele>207</ele>
        <time>2016-03-28T13:22:18+02:00</time>
      </trkpt>
      <trkpt lat="43.4772" lon="3.73123">
        <ele>207</ele>
        <time>2016-03-28T13:22:38+02:00</time>
      </trkpt>
      <trkpt lat="43.47734" lon="3.73149">
        <ele>207</ele>
        <time>2016-03-28T13:23:00+02:00</time>
      </trkpt>
      <trkpt lat="43.47756" lon="3.73158">
        <ele>209</ele>
        <time>2016-03-28T13:23:22+02:00</time>
      </trkpt>
      <trkpt lat="43.47779" lon="3.73171">
        <ele>209</ele>
        <time>2016-03-28T13:23:42+02:00</time>
      </trkpt>
      <trkpt lat="43.47802" lon="3.73181">
        <ele>209</ele>
        <time>2016-03-28T13:24:04+02:00</time>
      </trkpt>
      <trkpt lat="43.47825" lon="3.73183">
        <ele>210</ele>
        <time>2016-03-28T13:24:24+02:00</time>
      </trkpt>
      <trkpt lat="43.47847" lon="3.73188">
        <ele>210</ele>
        <time>2016-03-28T13:24:44+02:00</time>
      </trkpt>
      <trkpt lat="43.47872" lon="3.73194">
        <ele>211</ele>
        <time>2016-03-28T13:25:06+02:00</time>
      </trkpt>
      <trkpt lat="43.47895" lon="3.73205">
        <ele>211</ele>
        <time>2016-03-28T13:25:46+02:00</time>
      </trkpt>
      <trkpt lat="43.47917" lon="3.73214">
        <ele>211</ele>
        <time>2016-03-28T13:26:10+02:00</time>
      </trkpt>
      <trkpt lat="43.47937" lon="3.73228">
        <ele>213</ele>
        <time>2016-03-28T13:26:37+02:00</time>
      </trkpt>
      <trkpt lat="43.4796" lon="3.73232">
        <ele>215</ele>
        <time>2016-03-28T13:26:59+02:00</time>
      </trkpt>
      <trkpt lat="43.4798" lon="3.73246">
        <ele>217</ele>
        <time>2016-03-28T13:27:25+02:00</time>
      </trkpt>
      <trkpt lat="43.47998" lon="3.73266">
        <ele>218</ele>
        <time>2016-03-28T13:27:50+02:00</time>
      </trkpt>
      <trkpt lat="43.48018" lon="3.73283">
        <ele>218</ele>
        <time>2016-03-28T13:28:10+02:00</time>
      </trkpt>
      <trkpt lat="43.48036" lon="3.73303">
        <ele>219</ele>
        <time>2016-03-28T13:28:30+02:00</time>
      </trkpt>
      <trkpt lat="43.48038" lon="3.73323">
        <ele>218</ele>
        <time>2016-03-28T13:28:57+02:00</time>
      </trkpt>
      <trkpt lat="43.48073" lon="3.73323">
        <ele>221</ele>
        <time>2016-03-28T13:29:25+02:00</time>
      </trkpt>
      <trkpt lat="43.48096" lon="3.73356">
        <ele>220</ele>
        <time>2016-03-28T13:29:45+02:00</time>
      </trkpt>
      <trkpt lat="43.48109" lon="3.73373">
        <ele>220</ele>
        <time>2016-03-28T13:30:04+02:00</time>
      </trkpt>
      <trkpt lat="43.4813" lon="3.73387">
        <ele>221</ele>
        <time>2016-03-28T13:30:37+02:00</time>
      </trkpt>
      <trkpt lat="43.48149" lon="3.73404">
        <ele>221</ele>
        <time>2016-03-28T13:31:00+02:00</time>
      </trkpt>
      <trkpt lat="43.48167" lon="3.73424">
        <ele>221</ele>
        <time>2016-03-28T13:31:19+02:00</time>
      </trkpt>
      <trkpt lat="43.4819" lon="3.73435">
        <ele>220</ele>
        <time>2016-03-28T13:31:43+02:00</time>
      </trkpt>
      <trkpt lat="43.4821" lon="3.73445">
        <ele>219</ele>
        <time>2016-03-28T13:32:02+02:00</time>
      </trkpt>
      <trkpt lat="43.48233" lon="3.73451">
        <ele>218</ele>
        <time>2016-03-28T13:33:15+02:00</time>
      </trkpt>
      <trkpt lat="43.48241" lon="3.73433">
        <ele>219</ele>
        <time>2016-03-28T13:33:46+02:00</time>
      </trkpt>
      <trkpt lat="43.48255" lon="3.73405">
        <ele>220</ele>
        <time>2016-03-28T13:34:16+02:00</time>
      </trkpt>
      <trkpt lat="43.48292" lon="3.73394">
        <ele>219</ele>
        <time>2016-03-28T13:35:08+02:00</time>
      </trkpt>
      <trkpt lat="43.4831" lon="3.73391">
        <ele>219</ele>
        <time>2016-03-28T13:41:51+02:00</time>
      </trkpt>
      <trkpt lat="43.48333" lon="3.73385">
        <ele>216</ele>
        <time>2016-03-28T13:42:31+02:00</time>
      </trkpt>
      <trkpt lat="43.48355" lon="3.73382">
        <ele>219</ele>
        <time>2016-03-28T13:42:52+02:00</time>
      </trkpt>
      <trkpt lat="43.48381" lon="3.73369">
        <ele>220</ele>
        <time>2016-03-28T13:43:18+02:00</time>
      </trkpt>
      <trkpt lat="43.48387" lon="3.73358">
        <ele>220</ele>
        <time>2016-03-28T13:46:36+02:00</time>
      </trkpt>
      <trkpt lat="43.48396" lon="3.73346">
        <ele>220</ele>
        <time>2016-03-28T13:46:59+02:00</time>
      </trkpt>
      <trkpt lat="43.48402" lon="3.73331">
        <ele>220</ele>
        <time>2016-03-28T13:49:06+02:00</time>
      </trkpt>
      <trkpt lat="43.48423" lon="3.73319">
        <ele>218</ele>
        <time>2016-03-28T13:49:34+02:00</time>
      </trkpt>
      <trkpt lat="43.48447" lon="3.73314">
        <ele>218</ele>
        <time>2016-03-28T13:49:55+02:00</time>
      </trkpt>
      <trkpt lat="43.4847" lon="3.73314">
        <ele>218</ele>
        <time>2016-03-28T13:50:16+02:00</time>
      </trkpt>
      <trkpt lat="43.48492" lon="3.73307">
        <ele>217</ele>
        <time>2016-03-28T13:50:34+02:00</time>
      </trkpt>
      <trkpt lat="43.48515" lon="3.73297">
        <ele>216</ele>
        <time>2016-03-28T13:50:57+02:00</time>
      </trkpt>
      <trkpt lat="43.48535" lon="3.73282">
        <ele>215</ele>
        <time>2016-03-28T13:51:27+02:00</time>
      </trkpt>
      <trkpt lat="43.48547" lon="3.73255">
        <ele>214</ele>
        <time>2016-03-28T13:51:50+02:00</time>
      </trkpt>
      <trkpt lat="43.4855" lon="3.73224">
        <ele>214</ele>
        <time>2016-03-28T13:52:14+02:00</time>
      </trkpt>
      <trkpt lat="43.48545" lon="3.73193">
        <ele>212</ele>
        <time>2016-03-28T13:52:36+02:00</time>
      </trkpt>
      <trkpt lat="43.48544" lon="3.73161">
        <ele>211</ele>
        <time>2016-03-28T13:52:57+02:00</time>
      </trkpt>
      <trkpt lat="43.48564" lon="3.73145">
        <ele>211</ele>
        <time>2016-03-28T13:53:54+02:00</time>
      </trkpt>
      <trkpt lat="43.48573" lon="3.73116">
        <ele>208</ele>
        <time>2016-03-28T13:54:30+02:00</time>
      </trkpt>
      <trkpt lat="43.48588" lon="3.73091">
        <ele>206</ele>
        <time>2016-03-28T13:55:13+02:00</time>
      </trkpt>
      <trkpt lat="43.48609" lon="3.73078">
        <ele>204</ele>
        <time>2016-03-28T13:55:40+02:00</time>
      </trkpt>
      <trkpt lat="43.4862" lon="3.7305">
        <ele>199</ele>
        <time>2016-03-28T13:56:07+02:00</time>
      </trkpt>
      <trkpt lat="43.4863" lon="3.73021">
        <ele>193</ele>
        <time>2016-03-28T13:57:16+02:00</time>
      </trkpt>
      <trkpt lat="43.48639" lon="3.72992">
        <ele>187</ele>
        <time>2016-03-28T13:57:52+02:00</time>
      </trkpt>
      <trkpt lat="43.48646" lon="3.72961">
        <ele>182</ele>
        <time>2016-03-28T13:58:24+02:00</time>
      </trkpt>
      <trkpt lat="43.48664" lon="3.72943">
        <ele>180</ele>
        <time>2016-03-28T13:58:56+02:00</time>
      </trkpt>
      <trkpt lat="43.48673" lon="3.72912">
        <ele>174</ele>
        <time>2016-03-28T13:59:34+02:00</time>
      </trkpt>
      <trkpt lat="43.48684" lon="3.72884">
        <ele>168</ele>
        <time>2016-03-28T14:00:02+02:00</time>
      </trkpt>
      <trkpt lat="43.48686" lon="3.72852">
        <ele>163</ele>
        <time>2016-03-28T14:00:36+02:00</time>
      </trkpt>
      <trkpt lat="43.48685" lon="3.72821">
        <ele>159</ele>
        <time>2016-03-28T14:01:16+02:00</time>
      </trkpt>
      <trkpt lat="43.48665" lon="3.72839">
        <ele>162</ele>
        <time>2016-03-28T14:02:02+02:00</time>
      </trkpt>
      <trkpt lat="43.48679" lon="3.72814">
        <ele>158</ele>
        <time>2016-03-28T14:06:16+02:00</time>
      </trkpt>
      <trkpt lat="43.48697" lon="3.72796">
        <ele>156</ele>
        <time>2016-03-28T14:06:51+02:00</time>
      </trkpt>
      <trkpt lat="43.48716" lon="3.72776">
        <ele>155</ele>
        <time>2016-03-28T14:07:02+02:00</time>
      </trkpt>
      <trkpt lat="43.48727" lon="3.72749">
        <ele>153</ele>
        <time>2016-03-28T14:07:20+02:00</time>
      </trkpt>
      <trkpt lat="43.48736" lon="3.7272">
        <ele>154</ele>
        <time>2016-03-28T14:07:44+02:00</time>
      </trkpt>
    </trkseg>
  </trk>
</gpx>